Date,TemperatureHighF,TemperatureAvgF,TemperatureLowF,DewpointHighF,DewpointAvgF,DewpointLowF,HumidityHigh,HumidityAvg,HumidityLow,PressureMaxIn,PressureMinIn,WindSpeedMaxMPH,WindSpeedAvgMPH,GustSpeedMaxMPH,PrecipitationSumIn
2013-1-1,39.8,36.1,26.7,29.5,24.8,12.7,81,64,51,29.95,29.77,18,5,18,0.00
2013-1-2,32.1,26.7,21.6,15.4,13.2,10.3,66,56,46,30.12,29.91,19,3,19,0.00
2013-1-3,31.9,27.3,21.4,18.5,14.5,12.7,73,58,47,30.13,30.01,15,2,15,0.00
2013-1-4,36.8,33.1,28.2,21.2,19.9,16.6,66,58,50,30.03,29.90,24,5,24,0.00
2013-1-5,41.2,34.1,29.3,22.4,19.8,17.2,70,56,45,30.23,29.93,20,4,20,0.00
2013-1-6,47.0,37.7,30.7,32.4,26.7,20.5,92,66,45,30.16,29.90,15,2,15,0.00
2013-1-7,44.8,38.0,29.7,29.8,25.0,21.6,77,60,42,30.32,29.95,17,2,17,0.00
2013-1-8,47.7,36.0,26.1,32.1,26.8,21.4,84,70,49,30.34,30.26,14,1,14,0.00
2013-1-9,48.2,37.1,24.8,37.0,30.9,22.5,94,79,63,30.32,30.07,11,1,11,0.00
2013-1-10,48.5,41.9,35.0,30.9,25.2,22.1,66,52,39,30.46,30.15,18,3,18,0.00
2013-1-11,44.9,39.0,32.2,43.6,32.2,23.7,98,77,63,30.45,30.00,7,0,7,0.35
2013-1-12,46.8,43.9,40.6,45.0,43.0,40.3,99,97,90,30.08,29.99,7,0,7,0.00
2013-1-13,47.4,45.0,42.3,47.4,44.9,42.0,100,100,98,30.07,29.92,6,0,6,0.00
2013-1-14,55.6,48.6,38.3,53.3,43.2,30.1,100,84,52,30.21,29.82,18,2,18,0.07
2013-1-15,41.8,36.3,34.9,34.8,33.2,31.7,92,89,84,30.20,30.16,8,1,9,0.06
2013-1-27,34.3,27.4,12.6,12.8,11.0,4.4,69,50,37,30.48,30.39,15,3,15,0.00
2013-1-28,34.0,29.1,21.1,33.0,25.2,11.0,96,85,62,30.42,29.94,12,1,12,0.13
2013-1-29,51.7,42.3,33.5,43.3,39.0,32.2,97,89,69,30.06,29.93,9,0,9,0.00
2013-1-30,66.4,51.9,41.2,59.3,49.9,39.7,100,94,73,30.01,29.24,29,2,29,0.06
2013-1-31,62.9,43.2,27.8,59.7,29.2,9.2,98,60,36,29.74,28.96,42,13,48,0.76